sensor_id;sensor_type;location;lat;lon;timestamp;P1;durP1;ratioP1;P2;durP2;ratioP2
81180;SDS011;70650;51.408;7.132;2024-01-16T00:00:44;12.53;;;3.40;;
81180;SDS011;70650;51.408;7.132;2024-01-16T00:03:10;10.18;;;3.10;;
81180;SDS011;70650;51.408;7.132;2024-01-16T00:05:35;12.53;;;3.07;;
81180;SDS011;70650;51.408;7.132;2024-01-16T00:08:02;9.10;;;2.92;;
81180;SDS011;70650;51.408;7.132;2024-01-16T00:10:28;13.15;;;3.38;;
81180;SDS011;70650;51.408;7.132;2024-01-16T00:12:55;12.60;;;3.55;;
81180;SDS011;70650;51.408;7.132;2024-01-16T00:15:21;9.27;;;3.40;;
81180;SDS011;70650;51.408;7.132;2024-01-16T00:17:46;7.72;;;2.80;;
81180;SDS011;70650;51.408;7.132;2024-01-16T00:20:12;9.03;;;3.30;;
81180;SDS011;70650;51.408;7.132;2024-01-16T00:22:37;9.35;;;2.72;;
81180;SDS011;70650;51.408;7.132;2024-01-16T00:25:02;10.17;;;3.63;;
81180;SDS011;70650;51.408;7.132;2024-01-16T00:27:28;10.80;;;3.40;;
81180;SDS011;70650;51.408;7.132;2024-01-16T00:29:53;13.47;;;3.63;;
81180;SDS011;70650;51.408;7.132;2024-01-16T00:32:18;11.10;;;3.42;;
81180;SDS011;70650;51.408;7.132;2024-01-16T00:34:44;11.55;;;3.63;;
81180;SDS011;70650;51.408;7.132;2024-01-16T00:37:09;8.35;;;3.17;;
81180;SDS011;70650;51.408;7.132;2024-01-16T00:39:35;10.10;;;3.37;;
81180;SDS011;70650;51.408;7.132;2024-01-16T00:42:01;9.23;;;3.27;;
81180;SDS011;70650;51.408;7.132;2024-01-16T00:44:27;11.30;;;3.80;;
81180;SDS011;70650;51.408;7.132;2024-01-16T00:46:52;10.07;;;2.87;;
81180;SDS011;70650;51.408;7.132;2024-01-16T00:49:17;8.20;;;3.10;;
81180;SDS011;70650;51.408;7.132;2024-01-16T00:51:43;11.73;;;3.17;;
81180;SDS011;70650;51.408;7.132;2024-01-16T00:54:08;9.20;;;3.80;;
81180;SDS011;70650;51.408;7.132;2024-01-16T00:56:34;11.25;;;3.05;;
81180;SDS011;70650;51.408;7.132;2024-01-16T00:59:02;10.48;;;2.85;;
81180;SDS011;70650;51.408;7.132;2024-01-16T01:01:27;10.43;;;3.67;;
81180;SDS011;70650;51.408;7.132;2024-01-16T01:03:53;11.15;;;3.05;;
81180;SDS011;70650;51.408;7.132;2024-01-16T01:06:18;10.23;;;3.50;;
81180;SDS011;70650;51.408;7.132;2024-01-16T01:08:44;9.00;;;3.55;;
81180;SDS011;70650;51.408;7.132;2024-01-16T01:11:09;13.38;;;3.60;;
81180;SDS011;70650;51.408;7.132;2024-01-16T01:13:34;8.93;;;3.10;;
81180;SDS011;70650;51.408;7.132;2024-01-16T01:15:59;12.47;;;3.83;;
81180;SDS011;70650;51.408;7.132;2024-01-16T01:18:25;12.65;;;4.07;;
81180;SDS011;70650;51.408;7.132;2024-01-16T01:20:51;14.80;;;5.00;;
81180;SDS011;70650;51.408;7.132;2024-01-16T01:23:24;11.48;;;4.65;;
81180;SDS011;70650;51.408;7.132;2024-01-16T01:25:51;11.32;;;3.75;;
81180;SDS011;70650;51.408;7.132;2024-01-16T01:28:16;11.05;;;4.38;;
81180;SDS011;70650;51.408;7.132;2024-01-16T01:30:42;9.93;;;3.40;;
81180;SDS011;70650;51.408;7.132;2024-01-16T01:33:07;13.57;;;4.57;;
81180;SDS011;70650;51.408;7.132;2024-01-16T01:35:32;13.77;;;3.90;;
81180;SDS011;70650;51.408;7.132;2024-01-16T01:37:58;9.18;;;3.35;;
81180;SDS011;70650;51.408;7.132;2024-01-16T01:40:23;10.70;;;3.70;;
81180;SDS011;70650;51.408;7.132;2024-01-16T01:42:48;9.17;;;3.20;;
81180;SDS011;70650;51.408;7.132;2024-01-16T01:45:14;12.43;;;3.72;;
81180;SDS011;70650;51.408;7.132;2024-01-16T01:47:40;9.60;;;3.40;;
81180;SDS011;70650;51.408;7.132;2024-01-16T01:50:10;12.07;;;4.00;;
81180;SDS011;70650;51.408;7.132;2024-01-16T01:52:36;14.68;;;4.80;;
81180;SDS011;70650;51.408;7.132;2024-01-16T01:55:04;13.68;;;4.55;;
81180;SDS011;70650;51.408;7.132;2024-01-16T01:57:32;10.77;;;4.13;;
81180;SDS011;70650;51.408;7.132;2024-01-16T01:59:59;16.67;;;4.75;;
81180;SDS011;70650;51.408;7.132;2024-01-16T02:02:25;12.63;;;4.60;;
81180;SDS011;70650;51.408;7.132;2024-01-16T02:04:51;15.18;;;4.93;;
81180;SDS011;70650;51.408;7.132;2024-01-16T02:07:17;14.60;;;4.93;;
81180;SDS011;70650;51.408;7.132;2024-01-16T02:09:44;17.10;;;6.20;;
81180;SDS011;70650;51.408;7.132;2024-01-16T02:12:09;15.63;;;5.70;;
81180;SDS011;70650;51.408;7.132;2024-01-16T02:14:35;14.13;;;5.05;;
81180;SDS011;70650;51.408;7.132;2024-01-16T02:17:00;18.07;;;5.87;;
81180;SDS011;70650;51.408;7.132;2024-01-16T02:19:26;14.97;;;5.37;;
81180;SDS011;70650;51.408;7.132;2024-01-16T02:21:52;17.97;;;5.33;;
81180;SDS011;70650;51.408;7.132;2024-01-16T02:24:23;14.65;;;4.82;;
81180;SDS011;70650;51.408;7.132;2024-01-16T02:26:49;14.30;;;4.35;;
81180;SDS011;70650;51.408;7.132;2024-01-16T02:29:14;16.80;;;5.60;;
81180;SDS011;70650;51.408;7.132;2024-01-16T02:31:41;17.55;;;5.80;;
81180;SDS011;70650;51.408;7.132;2024-01-16T02:34:07;14.15;;;5.80;;
81180;SDS011;70650;51.408;7.132;2024-01-16T02:36:32;17.50;;;5.47;;
81180;SDS011;70650;51.408;7.132;2024-01-16T02:38:58;16.63;;;5.43;;
81180;SDS011;70650;51.408;7.132;2024-01-16T02:41:24;16.20;;;6.00;;
81180;SDS011;70650;51.408;7.132;2024-01-16T02:43:49;16.90;;;5.57;;
81180;SDS011;70650;51.408;7.132;2024-01-16T02:46:15;21.80;;;6.50;;
81180;SDS011;70650;51.408;7.132;2024-01-16T02:48:40;16.13;;;5.68;;
81180;SDS011;70650;51.408;7.132;2024-01-16T02:51:07;20.08;;;6.53;;
81180;SDS011;70650;51.408;7.132;2024-01-16T02:53:33;18.02;;;6.82;;
81180;SDS011;70650;51.408;7.132;2024-01-16T02:55:58;21.55;;;8.02;;
81180;SDS011;70650;51.408;7.132;2024-01-16T02:58:25;19.63;;;7.63;;
81180;SDS011;70650;51.408;7.132;2024-01-16T03:00:51;24.50;;;8.85;;
81180;SDS011;70650;51.408;7.132;2024-01-16T03:03:16;22.40;;;7.77;;
81180;SDS011;70650;51.408;7.132;2024-01-16T03:05:42;26.60;;;9.82;;
81180;SDS011;70650;51.408;7.132;2024-01-16T03:08:07;24.98;;;8.07;;
81180;SDS011;70650;51.408;7.132;2024-01-16T03:10:33;20.85;;;7.72;;
81180;SDS011;70650;51.408;7.132;2024-01-16T03:12:58;22.73;;;7.83;;
81180;SDS011;70650;51.408;7.132;2024-01-16T03:15:23;21.75;;;7.55;;
81180;SDS011;70650;51.408;7.132;2024-01-16T03:17:49;22.63;;;8.27;;
81180;SDS011;70650;51.408;7.132;2024-01-16T03:20:15;20.38;;;8.23;;
81180;SDS011;70650;51.408;7.132;2024-01-16T03:22:42;22.45;;;8.40;;
81180;SDS011;70650;51.408;7.132;2024-01-16T03:25:08;17.92;;;6.72;;
81180;SDS011;70650;51.408;7.132;2024-01-16T03:27:35;21.48;;;8.07;;
81180;SDS011;70650;51.408;7.132;2024-01-16T03:30:01;20.70;;;8.07;;
81180;SDS011;70650;51.408;7.132;2024-01-16T03:32:27;20.35;;;7.68;;
81180;SDS011;70650;51.408;7.132;2024-01-16T03:34:52;19.60;;;7.13;;
81180;SDS011;70650;51.408;7.132;2024-01-16T03:37:17;21.13;;;7.40;;
81180;SDS011;70650;51.408;7.132;2024-01-16T03:39:43;22.63;;;7.65;;
81180;SDS011;70650;51.408;7.132;2024-01-16T03:42:09;18.90;;;7.10;;
81180;SDS011;70650;51.408;7.132;2024-01-16T03:44:38;16.87;;;6.70;;
81180;SDS011;70650;51.408;7.132;2024-01-16T03:47:04;25.65;;;8.00;;
81180;SDS011;70650;51.408;7.132;2024-01-16T03:49:29;21.67;;;7.57;;
81180;SDS011;70650;51.408;7.132;2024-01-16T03:51:54;19.27;;;8.07;;
81180;SDS011;70650;51.408;7.132;2024-01-16T03:54:20;21.02;;;7.50;;
81180;SDS011;70650;51.408;7.132;2024-01-16T03:56:45;20.00;;;7.73;;
81180;SDS011;70650;51.408;7.132;2024-01-16T03:59:11;19.38;;;7.28;;
81180;SDS011;70650;51.408;7.132;2024-01-16T04:01:37;17.35;;;7.13;;
81180;SDS011;70650;51.408;7.132;2024-01-16T04:04:02;17.47;;;6.90;;
81180;SDS011;70650;51.408;7.132;2024-01-16T04:06:31;21.30;;;7.55;;
81180;SDS011;70650;51.408;7.132;2024-01-16T04:08:57;16.63;;;6.43;;
81180;SDS011;70650;51.408;7.132;2024-01-16T04:11:23;20.45;;;7.43;;
81180;SDS011;70650;51.408;7.132;2024-01-16T04:13:48;23.17;;;8.02;;
81180;SDS011;70650;51.408;7.132;2024-01-16T04:16:14;24.70;;;9.25;;
81180;SDS011;70650;51.408;7.132;2024-01-16T04:18:41;23.02;;;8.52;;
81180;SDS011;70650;51.408;7.132;2024-01-16T04:21:08;20.70;;;7.93;;
81180;SDS011;70650;51.408;7.132;2024-01-16T04:23:34;20.88;;;7.97;;
81180;SDS011;70650;51.408;7.132;2024-01-16T04:25:59;23.75;;;8.07;;
81180;SDS011;70650;51.408;7.132;2024-01-16T04:28:25;21.95;;;8.45;;
81180;SDS011;70650;51.408;7.132;2024-01-16T04:30:51;22.10;;;8.13;;
81180;SDS011;70650;51.408;7.132;2024-01-16T04:33:16;24.30;;;7.75;;
81180;SDS011;70650;51.408;7.132;2024-01-16T04:35:41;21.33;;;7.77;;
81180;SDS011;70650;51.408;7.132;2024-01-16T04:38:07;21.90;;;8.40;;
81180;SDS011;70650;51.408;7.132;2024-01-16T04:40:32;23.48;;;8.02;;
81180;SDS011;70650;51.408;7.132;2024-01-16T04:42:58;20.27;;;7.95;;
81180;SDS011;70650;51.408;7.132;2024-01-16T04:45:25;21.58;;;7.82;;
81180;SDS011;70650;51.408;7.132;2024-01-16T04:47:51;20.67;;;7.75;;
81180;SDS011;70650;51.408;7.132;2024-01-16T04:50:16;24.73;;;8.37;;
81180;SDS011;70650;51.408;7.132;2024-01-16T04:52:41;21.70;;;8.35;;
81180;SDS011;70650;51.408;7.132;2024-01-16T04:55:07;19.38;;;8.00;;
81180;SDS011;70650;51.408;7.132;2024-01-16T04:57:33;20.42;;;7.75;;
81180;SDS011;70650;51.408;7.132;2024-01-16T04:59:58;23.40;;;8.15;;
81180;SDS011;70650;51.408;7.132;2024-01-16T05:02:23;21.15;;;8.13;;
81180;SDS011;70650;51.408;7.132;2024-01-16T05:04:49;23.30;;;8.05;;
81180;SDS011;70650;51.408;7.132;2024-01-16T05:07:16;21.83;;;7.43;;
81180;SDS011;70650;51.408;7.132;2024-01-16T05:09:44;20.55;;;7.28;;
81180;SDS011;70650;51.408;7.132;2024-01-16T05:12:10;21.02;;;7.20;;
81180;SDS011;70650;51.408;7.132;2024-01-16T05:14:38;17.05;;;6.60;;
81180;SDS011;70650;51.408;7.132;2024-01-16T05:17:03;19.15;;;6.50;;
81180;SDS011;70650;51.408;7.132;2024-01-16T05:19:29;18.48;;;6.65;;
81180;SDS011;70650;51.408;7.132;2024-01-16T05:21:55;16.58;;;6.60;;
81180;SDS011;70650;51.408;7.132;2024-01-16T05:24:22;15.93;;;6.03;;
81180;SDS011;70650;51.408;7.132;2024-01-16T05:26:47;18.02;;;6.93;;
81180;SDS011;70650;51.408;7.132;2024-01-16T05:29:12;22.60;;;6.73;;
81180;SDS011;70650;51.408;7.132;2024-01-16T05:31:42;20.15;;;6.30;;
81180;SDS011;70650;51.408;7.132;2024-01-16T05:34:08;16.90;;;6.60;;
81180;SDS011;70650;51.408;7.132;2024-01-16T05:36:34;18.13;;;6.30;;
81180;SDS011;70650;51.408;7.132;2024-01-16T05:38:59;18.13;;;5.37;;
81180;SDS011;70650;51.408;7.132;2024-01-16T05:41:24;14.73;;;5.63;;
81180;SDS011;70650;51.408;7.132;2024-01-16T05:43:49;13.87;;;5.37;;
81180;SDS011;70650;51.408;7.132;2024-01-16T05:46:15;15.48;;;5.38;;
81180;SDS011;70650;51.408;7.132;2024-01-16T05:48:40;14.13;;;5.60;;
81180;SDS011;70650;51.408;7.132;2024-01-16T05:51:06;17.43;;;6.17;;
81180;SDS011;70650;51.408;7.132;2024-01-16T05:53:31;15.95;;;6.07;;
81180;SDS011;70650;51.408;7.132;2024-01-16T05:55:56;18.93;;;6.27;;
81180;SDS011;70650;51.408;7.132;2024-01-16T05:58:22;16.17;;;5.82;;
81180;SDS011;70650;51.408;7.132;2024-01-16T06:00:47;18.48;;;6.50;;
81180;SDS011;70650;51.408;7.132;2024-01-16T06:03:13;18.67;;;6.80;;
81180;SDS011;70650;51.408;7.132;2024-01-16T06:05:38;18.07;;;6.23;;
81180;SDS011;70650;51.408;7.132;2024-01-16T06:08:03;16.13;;;6.43;;
81180;SDS011;70650;51.408;7.132;2024-01-16T06:10:29;16.65;;;6.38;;
81180;SDS011;70650;51.408;7.132;2024-01-16T06:12:54;16.40;;;5.77;;
81180;SDS011;70650;51.408;7.132;2024-01-16T06:15:19;21.27;;;6.53;;
81180;SDS011;70650;51.408;7.132;2024-01-16T06:17:44;14.10;;;5.60;;
81180;SDS011;70650;51.408;7.132;2024-01-16T06:20:10;17.08;;;5.97;;
81180;SDS011;70650;51.408;7.132;2024-01-16T06:22:35;15.93;;;5.43;;
81180;SDS011;70650;51.408;7.132;2024-01-16T06:25:01;19.73;;;6.40;;
81180;SDS011;70650;51.408;7.132;2024-01-16T06:27:27;16.08;;;6.13;;
81180;SDS011;70650;51.408;7.132;2024-01-16T06:29:52;22.55;;;7.10;;
81180;SDS011;70650;51.408;7.132;2024-01-16T06:32:18;18.42;;;7.05;;
81180;SDS011;70650;51.408;7.132;2024-01-16T06:34:43;20.95;;;7.30;;
81180;SDS011;70650;51.408;7.132;2024-01-16T06:37:10;21.17;;;7.13;;
81180;SDS011;70650;51.408;7.132;2024-01-16T06:39:37;18.75;;;7.55;;
81180;SDS011;70650;51.408;7.132;2024-01-16T06:42:03;19.55;;;8.05;;
81180;SDS011;70650;51.408;7.132;2024-01-16T06:44:29;21.20;;;8.07;;
81180;SDS011;70650;51.408;7.132;2024-01-16T06:46:55;20.55;;;7.68;;
81180;SDS011;70650;51.408;7.132;2024-01-16T06:49:20;18.57;;;7.60;;
81180;SDS011;70650;51.408;7.132;2024-01-16T06:51:45;15.80;;;6.37;;
81180;SDS011;70650;51.408;7.132;2024-01-16T06:54:10;21.50;;;6.10;;
81180;SDS011;70650;51.408;7.132;2024-01-16T06:56:36;16.98;;;6.82;;
81180;SDS011;70650;51.408;7.132;2024-01-16T06:59:01;21.63;;;6.60;;
81180;SDS011;70650;51.408;7.132;2024-01-16T07:01:26;18.17;;;6.13;;
81180;SDS011;70650;51.408;7.132;2024-01-16T07:03:53;14.65;;;5.80;;
81180;SDS011;70650;51.408;7.132;2024-01-16T07:06:21;13.68;;;5.53;;
81180;SDS011;70650;51.408;7.132;2024-01-16T07:08:47;16.45;;;4.68;;
81180;SDS011;70650;51.408;7.132;2024-01-16T07:11:12;11.03;;;4.53;;
81180;SDS011;70650;51.408;7.132;2024-01-16T07:13:39;15.55;;;4.53;;
81180;SDS011;70650;51.408;7.132;2024-01-16T07:16:05;13.38;;;4.85;;
81180;SDS011;70650;51.408;7.132;2024-01-16T07:18:30;16.13;;;5.00;;
81180;SDS011;70650;51.408;7.132;2024-01-16T07:20:56;14.55;;;4.78;;
81180;SDS011;70650;51.408;7.132;2024-01-16T07:23:21;13.18;;;4.22;;
81180;SDS011;70650;51.408;7.132;2024-01-16T07:25:47;12.18;;;3.95;;
81180;SDS011;70650;51.408;7.132;2024-01-16T07:28:12;12.97;;;3.90;;
81180;SDS011;70650;51.408;7.132;2024-01-16T07:30:39;13.85;;;3.70;;
81180;SDS011;70650;51.408;7.132;2024-01-16T07:33:05;13.32;;;3.92;;
81180;SDS011;70650;51.408;7.132;2024-01-16T07:35:30;11.07;;;3.40;;
81180;SDS011;70650;51.408;7.132;2024-01-16T07:37:55;15.70;;;3.93;;
81180;SDS011;70650;51.408;7.132;2024-01-16T07:40:20;12.07;;;3.40;;
81180;SDS011;70650;51.408;7.132;2024-01-16T07:42:46;11.38;;;3.65;;
81180;SDS011;70650;51.408;7.132;2024-01-16T07:45:11;11.15;;;3.60;;
81180;SDS011;70650;51.408;7.132;2024-01-16T07:47:36;11.30;;;3.60;;
81180;SDS011;70650;51.408;7.132;2024-01-16T07:50:02;12.38;;;3.22;;
81180;SDS011;70650;51.408;7.132;2024-01-16T07:52:28;10.10;;;3.40;;
81180;SDS011;70650;51.408;7.132;2024-01-16T07:54:53;13.73;;;2.80;;
81180;SDS011;70650;51.408;7.132;2024-01-16T07:57:19;8.23;;;2.65;;
81180;SDS011;70650;51.408;7.132;2024-01-16T07:59:44;13.23;;;3.20;;
81180;SDS011;70650;51.408;7.132;2024-01-16T08:02:10;13.20;;;3.87;;
81180;SDS011;70650;51.408;7.132;2024-01-16T08:04:35;7.88;;;2.33;;
81180;SDS011;70650;51.408;7.132;2024-01-16T08:07:00;8.63;;;2.50;;
81180;SDS011;70650;51.408;7.132;2024-01-16T08:09:26;11.85;;;2.70;;
81180;SDS011;70650;51.408;7.132;2024-01-16T08:11:51;9.05;;;2.28;;
81180;SDS011;70650;51.408;7.132;2024-01-16T08:14:17;8.18;;;1.90;;
81180;SDS011;70650;51.408;7.132;2024-01-16T08:16:42;8.50;;;2.00;;
81180;SDS011;70650;51.408;7.132;2024-01-16T08:19:07;8.00;;;2.20;;
81180;SDS011;70650;51.408;7.132;2024-01-16T08:21:33;8.13;;;2.57;;
81180;SDS011;70650;51.408;7.132;2024-01-16T08:23:58;9.80;;;2.70;;
81180;SDS011;70650;51.408;7.132;2024-01-16T08:26:23;7.50;;;1.95;;
81180;SDS011;70650;51.408;7.132;2024-01-16T08:28:49;13.95;;;3.88;;
81180;SDS011;70650;51.408;7.132;2024-01-16T08:31:18;10.05;;;3.15;;
81180;SDS011;70650;51.408;7.132;2024-01-16T08:33:44;10.20;;;3.67;;
81180;SDS011;70650;51.408;7.132;2024-01-16T08:36:10;9.45;;;2.67;;
81180;SDS011;70650;51.408;7.132;2024-01-16T08:38:35;22.77;;;7.43;;
81180;SDS011;70650;51.408;7.132;2024-01-16T08:41:01;9.00;;;2.90;;
81180;SDS011;70650;51.408;7.132;2024-01-16T08:43:28;11.10;;;3.63;;
81180;SDS011;70650;51.408;7.132;2024-01-16T08:45:53;12.23;;;2.73;;
81180;SDS011;70650;51.408;7.132;2024-01-16T08:48:18;10.20;;;1.70;;
81180;SDS011;70650;51.408;7.132;2024-01-16T08:50:43;6.93;;;2.00;;
81180;SDS011;70650;51.408;7.132;2024-01-16T08:53:09;6.88;;;1.83;;
81180;SDS011;70650;51.408;7.132;2024-01-16T08:55:34;5.93;;;1.40;;
81180;SDS011;70650;51.408;7.132;2024-01-16T08:58:01;8.52;;;1.35;;
81180;SDS011;70650;51.408;7.132;2024-01-16T09:00:26;5.82;;;1.50;;
81180;SDS011;70650;51.408;7.132;2024-01-16T09:02:52;6.63;;;1.40;;
81180;SDS011;70650;51.408;7.132;2024-01-16T09:05:17;8.43;;;1.60;;
81180;SDS011;70650;51.408;7.132;2024-01-16T09:07:43;9.75;;;1.77;;
81180;SDS011;70650;51.408;7.132;2024-01-16T09:10:08;5.53;;;1.23;;
81180;SDS011;70650;51.408;7.132;2024-01-16T09:12:34;5.90;;;1.38;;
81180;SDS011;70650;51.408;7.132;2024-01-16T09:14:59;7.17;;;1.40;;
81180;SDS011;70650;51.408;7.132;2024-01-16T09:17:25;4.97;;;1.13;;
81180;SDS011;70650;51.408;7.132;2024-01-16T09:19:52;6.95;;;1.35;;
81180;SDS011;70650;51.408;7.132;2024-01-16T09:22:18;9.13;;;2.80;;
81180;SDS011;70650;51.408;7.132;2024-01-16T09:24:43;6.63;;;1.60;;
81180;SDS011;70650;51.408;7.132;2024-01-16T09:27:08;8.70;;;2.13;;
81180;SDS011;70650;51.408;7.132;2024-01-16T09:29:35;11.30;;;1.88;;
81180;SDS011;70650;51.408;7.132;2024-01-16T09:32:01;7.20;;;1.50;;
81180;SDS011;70650;51.408;7.132;2024-01-16T09:34:26;6.43;;;1.40;;
81180;SDS011;70650;51.408;7.132;2024-01-16T09:36:52;7.37;;;1.43;;
81180;SDS011;70650;51.408;7.132;2024-01-16T09:39:18;8.27;;;1.45;;
81180;SDS011;70650;51.408;7.132;2024-01-16T09:41:46;6.97;;;1.23;;
81180;SDS011;70650;51.408;7.132;2024-01-16T09:44:12;8.40;;;1.42;;
81180;SDS011;70650;51.408;7.132;2024-01-16T09:46:37;5.77;;;1.10;;
81180;SDS011;70650;51.408;7.132;2024-01-16T09:49:04;6.47;;;1.63;;
81180;SDS011;70650;51.408;7.132;2024-01-16T09:51:30;7.78;;;1.65;;
81180;SDS011;70650;51.408;7.132;2024-01-16T09:53:55;7.03;;;1.60;;
81180;SDS011;70650;51.408;7.132;2024-01-16T09:56:22;6.72;;;1.45;;
81180;SDS011;70650;51.408;7.132;2024-01-16T09:58:49;8.40;;;1.42;;
81180;SDS011;70650;51.408;7.132;2024-01-16T10:01:19;7.35;;;1.48;;
81180;SDS011;70650;51.408;7.132;2024-01-16T10:03:45;5.68;;;1.30;;
81180;SDS011;70650;51.408;7.132;2024-01-16T10:06:10;7.68;;;1.55;;
81180;SDS011;70650;51.408;7.132;2024-01-16T10:08:37;8.20;;;1.50;;
81180;SDS011;70650;51.408;7.132;2024-01-16T10:11:02;5.78;;;1.42;;
81180;SDS011;70650;51.408;7.132;2024-01-16T10:13:28;7.90;;;1.55;;
81180;SDS011;70650;51.408;7.132;2024-01-16T10:15:57;5.72;;;1.27;;
81180;SDS011;70650;51.408;7.132;2024-01-16T10:18:25;5.60;;;1.20;;
81180;SDS011;70650;51.408;7.132;2024-01-16T10:20:53;5.38;;;1.40;;
81180;SDS011;70650;51.408;7.132;2024-01-16T10:23:25;10.00;;;1.25;;
81180;SDS011;70650;51.408;7.132;2024-01-16T10:28:32;6.65;;;1.30;;
81180;SDS011;70650;51.408;7.132;2024-01-16T10:31:04;8.00;;;1.63;;
81180;SDS011;70650;51.408;7.132;2024-01-16T10:33:31;6.80;;;1.52;;
81180;SDS011;70650;51.408;7.132;2024-01-16T10:36:18;5.28;;;1.58;;
81180;SDS011;70650;51.408;7.132;2024-01-16T10:38:45;6.55;;;1.50;;
81180;SDS011;70650;51.408;7.132;2024-01-16T10:41:12;7.97;;;1.80;;
81180;SDS011;70650;51.408;7.132;2024-01-16T10:43:38;5.95;;;1.60;;
81180;SDS011;70650;51.408;7.132;2024-01-16T10:46:08;8.93;;;2.15;;
81180;SDS011;70650;51.408;7.132;2024-01-16T10:48:41;8.00;;;1.40;;
81180;SDS011;70650;51.408;7.132;2024-01-16T10:51:13;7.05;;;1.60;;
81180;SDS011;70650;51.408;7.132;2024-01-16T10:53:43;8.27;;;1.58;;
81180;SDS011;70650;51.408;7.132;2024-01-16T10:58:41;5.82;;;1.30;;
81180;SDS011;70650;51.408;7.132;2024-01-16T11:01:14;6.70;;;1.23;;
81180;SDS011;70650;51.408;7.132;2024-01-16T11:03:48;8.15;;;1.67;;
81180;SDS011;70650;51.408;7.132;2024-01-16T11:06:15;9.70;;;1.70;;
81180;SDS011;70650;51.408;7.132;2024-01-16T11:08:42;7.43;;;1.23;;
81180;SDS011;70650;51.408;7.132;2024-01-16T11:11:10;6.40;;;1.70;;
81180;SDS011;70650;51.408;7.132;2024-01-16T11:13:36;6.50;;;1.73;;
81180;SDS011;70650;51.408;7.132;2024-01-16T11:16:02;6.00;;;1.73;;
81180;SDS011;70650;51.408;7.132;2024-01-16T11:18:33;6.35;;;1.50;;
81180;SDS011;70650;51.408;7.132;2024-01-16T11:21:00;8.10;;;1.70;;
81180;SDS011;70650;51.408;7.132;2024-01-16T11:23:28;9.40;;;1.85;;
81180;SDS011;70650;51.408;7.132;2024-01-16T11:25:54;6.80;;;1.60;;
81180;SDS011;70650;51.408;7.132;2024-01-16T11:28:19;6.50;;;1.30;;
81180;SDS011;70650;51.408;7.132;2024-01-16T11:30:44;6.23;;;1.60;;
81180;SDS011;70650;51.408;7.132;2024-01-16T11:36:00;8.40;;;1.77;;
81180;SDS011;70650;51.408;7.132;2024-01-16T11:38:25;8.10;;;2.20;;
81180;SDS011;70650;51.408;7.132;2024-01-16T11:40:54;5.40;;;1.63;;
81180;SDS011;70650;51.408;7.132;2024-01-16T11:46:07;8.23;;;1.63;;
81180;SDS011;70650;51.408;7.132;2024-01-16T11:48:34;6.00;;;1.50;;
81180;SDS011;70650;51.408;7.132;2024-01-16T11:51:21;6.28;;;1.80;;
81180;SDS011;70650;51.408;7.132;2024-01-16T11:53:51;7.90;;;1.73;;
81180;SDS011;70650;51.408;7.132;2024-01-16T11:58:48;8.13;;;1.80;;
81180;SDS011;70650;51.408;7.132;2024-01-16T12:01:18;6.40;;;1.50;;
81180;SDS011;70650;51.408;7.132;2024-01-16T12:04:01;6.97;;;1.77;;
81180;SDS011;70650;51.408;7.132;2024-01-16T12:06:30;8.98;;;1.70;;
81180;SDS011;70650;51.408;7.132;2024-01-16T12:09:10;7.70;;;1.70;;
81180;SDS011;70650;51.408;7.132;2024-01-16T12:11:38;6.15;;;1.58;;
81180;SDS011;70650;51.408;7.132;2024-01-16T12:14:04;7.95;;;1.80;;
81180;SDS011;70650;51.408;7.132;2024-01-16T12:16:30;11.15;;;2.00;;
81180;SDS011;70650;51.408;7.132;2024-01-16T12:19:07;6.87;;;1.70;;
81180;SDS011;70650;51.408;7.132;2024-01-16T12:21:34;8.60;;;1.90;;
81180;SDS011;70650;51.408;7.132;2024-01-16T12:24:10;9.02;;;2.08;;
81180;SDS011;70650;51.408;7.132;2024-01-16T12:26:36;6.25;;;1.70;;
81180;SDS011;70650;51.408;7.132;2024-01-16T12:29:04;8.55;;;1.77;;
81180;SDS011;70650;51.408;7.132;2024-01-16T12:31:29;7.75;;;2.28;;
81180;SDS011;70650;51.408;7.132;2024-01-16T12:34:04;9.47;;;2.20;;
81180;SDS011;70650;51.408;7.132;2024-01-16T12:36:33;6.70;;;1.67;;
81180;SDS011;70650;51.408;7.132;2024-01-16T12:38:59;7.65;;;1.83;;
81180;SDS011;70650;51.408;7.132;2024-01-16T12:41:24;7.13;;;2.17;;
81180;SDS011;70650;51.408;7.132;2024-01-16T12:43:53;8.43;;;1.70;;
81180;SDS011;70650;51.408;7.132;2024-01-16T12:46:19;9.95;;;1.80;;
81180;SDS011;70650;51.408;7.132;2024-01-16T12:48:44;9.93;;;1.80;;
81180;SDS011;70650;51.408;7.132;2024-01-16T12:51:12;7.28;;;1.90;;
81180;SDS011;70650;51.408;7.132;2024-01-16T12:53:45;5.75;;;1.90;;
81180;SDS011;70650;51.408;7.132;2024-01-16T12:56:11;8.95;;;2.22;;
81180;SDS011;70650;51.408;7.132;2024-01-16T12:58:37;6.25;;;1.92;;
81180;SDS011;70650;51.408;7.132;2024-01-16T13:01:23;7.38;;;2.00;;
81180;SDS011;70650;51.408;7.132;2024-01-16T13:03:54;5.15;;;1.67;;
81180;SDS011;70650;51.408;7.132;2024-01-16T13:06:20;9.75;;;2.05;;
81180;SDS011;70650;51.408;7.132;2024-01-16T13:08:47;8.05;;;2.03;;
81180;SDS011;70650;51.408;7.132;2024-01-16T13:11:13;7.32;;;1.95;;
81180;SDS011;70650;51.408;7.132;2024-01-16T13:13:45;6.13;;;1.95;;
81180;SDS011;70650;51.408;7.132;2024-01-16T13:16:17;12.85;;;3.53;;
81180;SDS011;70650;51.408;7.132;2024-01-16T13:18:42;10.75;;;2.30;;
81180;SDS011;70650;51.408;7.132;2024-01-16T13:21:09;8.20;;;2.13;;
81180;SDS011;70650;51.408;7.132;2024-01-16T13:23:35;10.63;;;2.20;;
81180;SDS011;70650;51.408;7.132;2024-01-16T13:26:01;8.30;;;2.25;;
81180;SDS011;70650;51.408;7.132;2024-01-16T13:28:30;9.32;;;2.42;;
81180;SDS011;70650;51.408;7.132;2024-01-16T13:30:59;12.18;;;2.22;;
81180;SDS011;70650;51.408;7.132;2024-01-16T13:33:26;8.97;;;2.23;;
81180;SDS011;70650;51.408;7.132;2024-01-16T13:35:52;7.45;;;2.20;;
81180;SDS011;70650;51.408;7.132;2024-01-16T13:38:19;9.13;;;1.92;;
81180;SDS011;70650;51.408;7.132;2024-01-16T13:40:45;5.20;;;1.75;;
81180;SDS011;70650;51.408;7.132;2024-01-16T13:43:10;8.35;;;2.05;;
81180;SDS011;70650;51.408;7.132;2024-01-16T13:45:37;7.60;;;2.25;;
81180;SDS011;70650;51.408;7.132;2024-01-16T13:48:06;8.23;;;2.08;;
81180;SDS011;70650;51.408;7.132;2024-01-16T13:50:32;5.20;;;1.92;;
81180;SDS011;70650;51.408;7.132;2024-01-16T13:52:58;7.15;;;2.08;;
81180;SDS011;70650;51.408;7.132;2024-01-16T13:55:24;7.10;;;2.17;;
81180;SDS011;70650;51.408;7.132;2024-01-16T13:57:49;7.38;;;2.03;;
81180;SDS011;70650;51.408;7.132;2024-01-16T14:00:14;8.97;;;2.50;;
81180;SDS011;70650;51.408;7.132;2024-01-16T14:05:10;5.90;;;2.28;;
81180;SDS011;70650;51.408;7.132;2024-01-16T14:07:40;7.05;;;2.20;;
81180;SDS011;70650;51.408;7.132;2024-01-16T14:10:07;6.50;;;2.00;;
81180;SDS011;70650;51.408;7.132;2024-01-16T14:12:34;9.32;;;2.72;;
81180;SDS011;70650;51.408;7.132;2024-01-16T14:15:00;6.75;;;2.33;;
81180;SDS011;70650;51.408;7.132;2024-01-16T14:17:28;6.95;;;2.15;;
81180;SDS011;70650;51.408;7.132;2024-01-16T14:19:53;8.70;;;2.37;;
81180;SDS011;70650;51.408;7.132;2024-01-16T14:22:18;6.37;;;2.13;;
81180;SDS011;70650;51.408;7.132;2024-01-16T14:24:45;10.45;;;2.65;;
81180;SDS011;70650;51.408;7.132;2024-01-16T14:27:12;9.05;;;2.47;;
81180;SDS011;70650;51.408;7.132;2024-01-16T14:29:38;12.05;;;2.55;;
81180;SDS011;70650;51.408;7.132;2024-01-16T14:32:04;8.55;;;2.15;;
81180;SDS011;70650;51.408;7.132;2024-01-16T14:34:30;7.82;;;2.55;;
81180;SDS011;70650;51.408;7.132;2024-01-16T14:36:56;8.18;;;2.60;;
81180;SDS011;70650;51.408;7.132;2024-01-16T14:39:21;8.20;;;2.47;;
81180;SDS011;70650;51.408;7.132;2024-01-16T14:41:49;6.47;;;2.03;;
81180;SDS011;70650;51.408;7.132;2024-01-16T14:44:15;7.28;;;2.00;;
81180;SDS011;70650;51.408;7.132;2024-01-16T14:46:40;7.07;;;2.13;;
81180;SDS011;70650;51.408;7.132;2024-01-16T14:49:08;8.52;;;2.38;;
81180;SDS011;70650;51.408;7.132;2024-01-16T14:51:33;6.45;;;2.20;;